createdAt,value
2017-06-08T00:00:33.189Z,91.70
2017-06-08T00:03:01.490Z,91.60
2017-06-08T00:05:29.065Z,91.60
2017-06-08T00:07:56.601Z,91.60
2017-06-08T00:10:24.123Z,91.70
2017-06-08T00:12:51.638Z,91.70
2017-06-08T00:15:19.170Z,91.70
2017-06-08T00:17:47.446Z,91.70
2017-06-08T00:20:14.982Z,91.70
2017-06-08T00:22:42.504Z,91.80
2017-06-08T00:25:10.048Z,91.80
2017-06-08T00:27:37.557Z,91.80
2017-06-08T00:30:05.093Z,91.90
2017-06-08T00:32:32.628Z,92.00
2017-06-08T00:35:00.142Z,92.00
2017-06-08T00:37:27.684Z,92.10
2017-06-08T00:39:55.194Z,92.00
2017-06-08T00:42:22.759Z,92.10
2017-06-08T00:44:50.282Z,92.10
2017-06-08T00:47:17.798Z,92.10
2017-06-08T00:49:45.333Z,92.10
2017-06-08T00:52:13.615Z,92.20
2017-06-08T00:54:41.214Z,92.20
2017-06-08T00:57:08.727Z,92.30
2017-06-08T00:59:37.048Z,92.40
2017-06-08T01:02:04.558Z,92.40
2017-06-08T01:04:32.070Z,92.40
2017-06-08T01:06:59.599Z,92.40
2017-06-08T01:09:27.117Z,92.40
2017-06-08T01:11:54.687Z,92.40
2017-06-08T01:14:22.192Z,92.50
2017-06-08T01:16:49.738Z,92.50
2017-06-08T01:19:17.256Z,92.50
2017-06-08T01:21:44.770Z,92.60
2017-06-08T01:24:12.302Z,92.60
2017-06-08T01:26:40.582Z,92.60
2017-06-08T01:29:08.878Z,92.60
2017-06-08T01:31:36.404Z,92.50
2017-06-08T01:34:04.966Z,92.50
2017-06-08T01:36:32.487Z,92.50
2017-06-08T01:39:00.001Z,92.60
2017-06-08T01:41:27.533Z,92.60
2017-06-08T01:43:55.045Z,92.70
2017-06-08T01:46:23.349Z,92.80
2017-06-08T01:48:50.861Z,92.70
2017-06-08T01:51:18.415Z,92.70
2017-06-08T01:53:45.926Z,92.70
2017-06-08T01:56:13.442Z,92.80
2017-06-08T01:58:40.977Z,92.80
2017-06-08T02:01:08.487Z,92.90
2017-06-08T02:03:36.789Z,93.00
2017-06-08T02:06:04.303Z,93.00
2017-06-08T02:08:31.841Z,93.00
2017-06-08T02:10:59.363Z,93.00
2017-06-08T02:13:26.881Z,93.00
2017-06-08T02:15:54.410Z,93.10
2017-06-08T02:18:21.923Z,93.10
2017-06-08T02:20:50.219Z,93.20
2017-06-08T02:23:17.734Z,93.10
2017-06-08T02:25:45.286Z,93.20
2017-06-08T02:28:12.806Z,93.40
2017-06-08T02:30:40.315Z,93.50
2017-06-08T02:33:07.846Z,93.40
2017-06-08T02:35:35.362Z,93.50
2017-06-08T02:38:03.671Z,93.50
2017-06-08T02:40:31.187Z,93.50
2017-06-08T02:42:58.717Z,93.50
2017-06-08T02:45:26.231Z,93.60
2017-06-08T02:47:53.741Z,93.60
2017-06-08T02:50:21.275Z,93.60
2017-06-08T02:52:48.790Z,93.60
2017-06-08T02:55:17.091Z,94.20
2017-06-08T02:57:44.606Z,93.70
2017-06-08T03:00:12.150Z,93.70
2017-06-08T03:02:39.665Z,93.70
2017-06-08T03:05:07.942Z,93.80
2017-06-08T03:07:36.274Z,93.80
2017-06-08T03:10:03.777Z,93.70
2017-06-08T03:12:32.074Z,93.80
2017-06-08T03:14:59.583Z,93.80
2017-06-08T03:17:27.137Z,93.90
2017-06-08T03:19:54.650Z,93.90
2017-06-08T03:22:22.165Z,93.90
2017-06-08T03:24:49.693Z,93.90
2017-06-08T03:27:17.206Z,93.90
2017-06-08T03:29:45.512Z,94.00
2017-06-08T03:32:13.035Z,94.00
2017-06-08T03:34:40.594Z,94.00
2017-06-08T03:37:08.111Z,94.00
2017-06-08T03:39:35.627Z,94.00
2017-06-08T03:42:03.956Z,94.30
2017-06-08T03:44:31.457Z,94.10
2017-06-08T03:46:58.989Z,94.10
2017-06-08T03:49:26.506Z,94.20
2017-06-08T03:51:54.046Z,94.20
2017-06-08T03:54:22.326Z,94.40
2017-06-08T03:56:50.645Z,94.30
2017-06-08T03:59:18.170Z,94.30
2017-06-08T04:01:46.455Z,94.20
2017-06-08T04:04:13.987Z,94.20
2017-06-08T04:06:41.504Z,94.10
2017-06-08T04:09:09.059Z,94.00
2017-06-08T04:11:36.575Z,94.00
2017-06-08T04:14:04.095Z,93.80
2017-06-08T04:16:31.634Z,93.70
2017-06-08T04:18:59.152Z,93.50
2017-06-08T04:21:26.682Z,93.40
2017-06-08T04:23:54.198Z,93.50
2017-06-08T04:26:21.742Z,91.10
2017-06-08T04:28:50.066Z,50.60
2017-06-08T04:31:17.577Z,50.30
2017-06-08T04:33:46.009Z,33.40
2017-06-08T04:36:13.522Z,33.30
2017-06-08T04:38:41.070Z,32.70
2017-06-08T04:41:08.594Z,27.40
2017-06-08T04:43:36.133Z,26.70
2017-06-08T04:46:03.653Z,24.10
2017-06-08T04:48:31.171Z,23.60
2017-06-08T04:50:58.705Z,22.70
2017-06-08T04:53:26.225Z,20.30
2017-06-08T04:55:53.768Z,20.70
2017-06-08T05:00:58.482Z,20.10
2017-06-08T05:03:26.007Z,21.60
2017-06-08T05:05:54.294Z,21.10
2017-06-08T05:08:21.858Z,21.10
2017-06-08T05:10:49.382Z,21.60
2017-06-08T05:13:16.918Z,21.40
2017-06-08T05:15:44.459Z,20.90
2017-06-08T05:18:12.038Z,19.90
2017-06-08T05:20:39.566Z,18.70
2017-06-08T05:23:07.098Z,17.60
2017-06-08T05:25:34.642Z,17.00
2017-06-08T05:28:02.161Z,17.00
2017-06-08T05:30:29.703Z,16.80
2017-06-08T05:32:58.006Z,17.50
2017-06-08T05:35:25.558Z,17.50
2017-06-08T05:37:53.082Z,17.10
2017-06-08T05:40:21.369Z,16.10
2017-06-08T05:42:49.674Z,14.80
2017-06-08T05:45:17.201Z,14.70
2017-06-08T05:47:45.528Z,13.80
2017-06-08T05:50:13.090Z,13.80
2017-06-08T05:52:40.659Z,13.90
2017-06-08T05:55:08.175Z,12.40
2017-06-08T05:57:36.469Z,12.80
2017-06-08T06:00:04.006Z,12.90
2017-06-08T06:02:32.294Z,12.20
2017-06-08T06:05:00.622Z,11.40
2017-06-08T06:07:28.140Z,11.40
2017-06-08T06:09:55.729Z,11.90
2017-06-08T06:12:23.246Z,11.30
2017-06-08T06:14:51.529Z,11.40
2017-06-08T06:17:19.838Z,12.40
2017-06-08T06:19:47.363Z,12.50
2017-06-08T06:22:15.673Z,12.30
2017-06-08T06:24:43.199Z,12.30
2017-06-08T06:27:11.531Z,12.40
2017-06-08T06:29:39.091Z,12.90
2017-06-08T06:32:06.610Z,13.20
2017-06-08T06:34:34.910Z,16.90
2017-06-08T06:37:02.442Z,16.90
2017-06-08T06:39:30.746Z,23.70
2017-06-08T06:41:58.265Z,23.60
2017-06-08T06:44:25.797Z,25.10
2017-06-08T06:46:53.318Z,25.60
2017-06-08T06:49:20.879Z,27.00
2017-06-08T06:51:48.394Z,28.90
2017-06-08T06:54:15.926Z,29.50
2017-06-08T06:56:43.495Z,28.40
2017-06-08T06:59:11.009Z,26.20
2017-06-08T07:01:39.334Z,27.40
2017-06-08T07:04:06.854Z,27.40
2017-06-08T07:06:35.167Z,28.80
2017-06-08T07:09:06.190Z,28.60
2017-06-08T07:11:33.715Z,29.30
2017-06-08T07:14:02.036Z,28.80
2017-06-08T07:16:29.557Z,28.80
2017-06-08T07:18:57.847Z,30.70
2017-06-08T07:21:26.165Z,33.00
2017-06-08T07:23:53.693Z,33.00
2017-06-08T07:26:21.234Z,33.80
2017-06-08T07:28:49.513Z,33.70
2017-06-08T07:31:17.822Z,34.60
2017-06-08T07:33:45.405Z,34.50
2017-06-08T07:36:12.926Z,34.70
2017-06-08T07:38:40.470Z,34.60
2017-06-08T07:41:08.762Z,35.70
2017-06-08T07:43:36.362Z,35.80
2017-06-08T07:46:03.890Z,35.80
2017-06-08T07:48:31.409Z,33.30
2017-06-08T07:50:58.947Z,34.20
2017-06-08T07:53:26.466Z,34.60
2017-06-08T07:55:54.788Z,33.30
2017-06-08T07:58:22.306Z,33.10
2017-06-08T08:01:01.880Z,34.20
2017-06-08T08:03:29.398Z,33.90
2017-06-08T08:05:56.926Z,32.20
2017-06-08T08:08:24.468Z,31.00
2017-06-08T08:10:51.981Z,31.20
2017-06-08T08:13:20.285Z,29.50
2017-06-08T08:15:47.809Z,29.30
2017-06-08T08:18:15.351Z,30.20
2017-06-08T08:20:42.875Z,29.60
2017-06-08T08:23:10.414Z,29.40
2017-06-08T08:25:38.009Z,28.90
2017-06-08T08:28:05.539Z,29.10
2017-06-08T08:30:33.086Z,29.40
2017-06-08T08:33:01.370Z,30.20
2017-06-08T08:35:28.964Z,30.20
2017-06-08T08:37:56.485Z,28.70
2017-06-08T08:40:24.796Z,29.40
2017-06-08T08:42:52.322Z,29.20
2017-06-08T08:45:20.624Z,28.50
2017-06-08T08:47:48.157Z,28.50
2017-06-08T08:50:16.488Z,27.10
2017-06-08T08:52:44.018Z,26.80
2017-06-08T08:55:14.680Z,27.10
2017-06-08T08:57:42.214Z,27.20
2017-06-08T09:00:09.746Z,25.30
2017-06-08T09:02:37.266Z,24.00
2017-06-08T09:05:04.815Z,24.60
2017-06-08T09:07:32.347Z,25.20
2017-06-08T09:09:59.907Z,22.20
2017-06-08T09:12:27.438Z,22.00
2017-06-08T09:14:55.251Z,23.00
2017-06-08T09:17:22.786Z,23.00
2017-06-08T09:19:51.074Z,24.40
2017-06-08T09:22:18.611Z,24.40
2017-06-08T09:24:46.893Z,25.80
2017-06-08T09:27:14.438Z,26.10
2017-06-08T09:29:41.958Z,28.00
2017-06-08T09:32:09.511Z,26.20
2017-06-08T09:34:37.044Z,25.70
2017-06-08T09:37:05.329Z,24.10
2017-06-08T09:39:32.878Z,24.00
2017-06-08T09:42:01.167Z,22.70
2017-06-08T09:44:28.710Z,22.70
2017-06-08T09:46:57.003Z,22.40
2017-06-08T09:49:25.312Z,21.60
2017-06-08T09:51:52.987Z,21.60
2017-06-08T09:54:20.506Z,20.30
2017-06-08T09:56:48.818Z,21.20
2017-06-08T09:59:16.343Z,21.30
2017-06-08T10:01:44.651Z,21.40
2017-06-08T10:04:12.175Z,21.40
2017-06-08T10:06:40.464Z,20.70
2017-06-08T10:09:08.060Z,20.70
2017-06-08T10:11:35.578Z,21.20
2017-06-08T10:14:03.882Z,21.40
2017-06-08T10:16:31.409Z,21.40
2017-06-08T10:18:59.694Z,21.50
2017-06-08T10:21:28.018Z,20.90
2017-06-08T10:23:55.542Z,20.90
2017-06-08T10:26:23.953Z,21.60
2017-06-08T10:28:51.522Z,21.50
2017-06-08T10:31:19.042Z,21.80
2017-06-08T10:33:47.366Z,23.20
2017-06-08T10:36:14.914Z,23.20
2017-06-08T10:38:42.447Z,21.10
2017-06-08T10:41:10.726Z,23.40
2017-06-08T10:43:38.272Z,23.30
2017-06-08T10:48:43.368Z,21.90
2017-06-08T10:51:10.893Z,22.70
2017-06-08T10:53:39.174Z,23.90
2017-06-08T10:56:07.482Z,24.50
2017-06-08T10:58:35.005Z,24.40
2017-06-08T11:01:03.304Z,24.60
2017-06-08T11:03:30.822Z,24.50
2017-06-08T11:05:58.360Z,24.80
2017-06-08T11:08:25.878Z,23.40
2017-06-08T11:10:53.415Z,23.50
2017-06-08T11:13:20.930Z,23.00
2017-06-08T11:15:48.490Z,23.20
2017-06-08T11:18:16.009Z,22.80
2017-06-08T11:20:44.297Z,23.10
2017-06-08T11:23:11.834Z,23.20
2017-06-08T11:25:39.354Z,22.20
2017-06-08T11:28:06.893Z,20.40
2017-06-08T11:30:34.419Z,21.50
2017-06-08T11:33:01.962Z,21.30
2017-06-08T11:35:29.483Z,21.90
2017-06-08T11:37:57.022Z,23.40
2017-06-08T11:40:24.543Z,22.60
2017-06-08T11:42:52.090Z,21.80
2017-06-08T11:45:19.605Z,21.70
2017-06-08T11:47:47.125Z,23.90
2017-06-08T11:50:14.659Z,24.00
2017-06-08T11:52:42.178Z,23.30
2017-06-08T11:55:09.766Z,23.10
2017-06-08T11:57:37.377Z,22.70
2017-06-08T12:00:04.914Z,21.40
2017-06-08T12:02:32.431Z,21.60
2017-06-08T12:04:59.974Z,22.70
2017-06-08T12:07:28.261Z,22.40
2017-06-08T12:09:55.822Z,22.30
2017-06-08T12:12:23.345Z,21.90
2017-06-08T12:14:50.862Z,23.90
2017-06-08T12:17:18.394Z,23.30
2017-06-08T12:19:46.687Z,20.90
2017-06-08T12:22:14.233Z,20.90
2017-06-08T12:24:42.626Z,21.20
2017-06-08T12:27:10.163Z,21.20
2017-06-08T12:29:37.738Z,21.20
2017-06-08T12:32:06.049Z,19.20
2017-06-08T12:34:33.566Z,19.20
2017-06-08T12:37:01.867Z,21.10
2017-06-08T12:39:29.391Z,21.10
2017-06-08T12:41:56.934Z,21.00
2017-06-08T12:44:24.454Z,22.30
2017-06-08T12:46:51.974Z,21.90
2017-06-08T12:49:19.505Z,21.10
2017-06-08T12:51:47.041Z,21.80
2017-06-08T12:54:14.621Z,21.40
2017-06-08T12:56:42.143Z,21.40
2017-06-08T12:59:10.443Z,20.20
2017-06-08T13:01:38.026Z,20.10
2017-06-08T13:04:05.561Z,21.50
2017-06-08T13:06:33.082Z,20.30
2017-06-08T13:09:00.622Z,20.20
2017-06-08T13:11:28.138Z,20.30
2017-06-08T13:13:55.658Z,18.80
2017-06-08T13:18:59.954Z,18.00
2017-06-08T13:21:27.510Z,19.20
2017-06-08T13:23:55.037Z,19.30
2017-06-08T13:26:23.374Z,19.10
2017-06-08T13:28:50.895Z,19.10
2017-06-08T13:31:18.449Z,19.20
2017-06-08T13:33:45.965Z,19.40
2017-06-08T13:36:13.486Z,19.20
2017-06-08T13:38:41.026Z,19.00
2017-06-08T13:41:09.318Z,18.40
2017-06-08T13:43:36.852Z,18.40
2017-06-08T13:46:05.138Z,17.40
2017-06-08T13:48:33.447Z,17.30
2017-06-08T13:51:00.981Z,17.30
2017-06-08T13:53:28.531Z,17.30
2017-06-08T13:55:56.818Z,20.00
2017-06-08T13:58:25.094Z,19.80
2017-06-08T14:00:53.395Z,19.40
2017-06-08T14:03:20.913Z,19.40
2017-06-08T14:05:48.457Z,19.60
2017-06-08T14:08:15.969Z,20.00
2017-06-08T14:10:43.511Z,20.80
2017-06-08T14:13:11.794Z,20.60
2017-06-08T14:15:40.099Z,19.10
2017-06-08T14:18:07.616Z,18.90
2017-06-08T14:20:35.938Z,20.00
2017-06-08T14:23:03.458Z,20.00
2017-06-08T14:25:31.742Z,19.30
2017-06-08T14:28:00.070Z,19.70
2017-06-08T14:30:27.582Z,19.70
2017-06-08T14:32:55.894Z,19.50
2017-06-08T14:35:23.435Z,19.50
2017-06-08T14:37:50.979Z,20.80
2017-06-08T14:40:18.499Z,20.90
2017-06-08T14:42:46.037Z,19.90
2017-06-08T14:45:13.558Z,20.00
2017-06-08T14:47:41.874Z,18.40
2017-06-08T14:50:09.399Z,18.50
2017-06-08T14:52:37.685Z,17.30
2017-06-08T14:55:05.225Z,17.20
2017-06-08T14:57:33.505Z,17.80
2017-06-08T15:00:01.817Z,16.70
2017-06-08T15:02:29.325Z,16.40
2017-06-08T15:04:56.863Z,17.20
2017-06-08T15:07:24.382Z,17.80
2017-06-08T15:09:51.918Z,17.60
2017-06-08T15:12:19.434Z,17.50
2017-06-08T15:14:46.989Z,18.50
2017-06-08T15:17:14.507Z,17.20
2017-06-08T15:19:42.810Z,18.20
2017-06-08T15:22:12.383Z,18.20
2017-06-08T15:24:39.921Z,18.30
2017-06-08T15:27:07.462Z,19.30
2017-06-08T15:29:34.977Z,19.40
2017-06-08T15:32:03.277Z,20.90
2017-06-08T15:34:30.798Z,20.30
2017-06-08T15:36:58.334Z,20.80
2017-06-08T15:39:25.860Z,21.60
2017-06-08T15:41:53.538Z,23.40
2017-06-08T15:44:21.057Z,22.90
2017-06-08T15:46:49.344Z,21.40
2017-06-08T15:49:17.654Z,20.20
2017-06-08T15:51:45.175Z,20.20
2017-06-08T15:54:13.479Z,20.20
2017-06-08T15:56:40.994Z,20.20
2017-06-08T15:59:08.535Z,20.40
2017-06-08T16:01:36.050Z,20.40
2017-06-08T16:04:03.588Z,20.40
2017-06-08T16:06:31.892Z,20.90
2017-06-08T16:08:59.443Z,20.30
2017-06-08T16:11:26.994Z,21.70
2017-06-08T16:13:54.510Z,22.70
2017-06-08T16:16:22.065Z,22.70
2017-06-08T16:18:49.629Z,22.90
2017-06-08T16:21:17.169Z,24.00
2017-06-08T16:23:47.619Z,22.60
2017-06-08T16:26:15.171Z,21.60
2017-06-08T16:28:42.690Z,22.70
2017-06-08T16:31:11.011Z,22.70
2017-06-08T16:33:38.557Z,22.70
2017-06-08T16:36:06.642Z,23.30
2017-06-08T16:38:34.183Z,22.40
2017-06-08T16:41:01.705Z,22.20
2017-06-08T16:43:29.253Z,22.30
2017-06-08T16:45:56.781Z,22.30
2017-06-08T16:48:24.313Z,23.80
2017-06-08T16:50:51.826Z,22.30
2017-06-08T16:53:19.378Z,23.50
2017-06-08T16:55:47.653Z,23.90
2017-06-08T16:58:15.166Z,24.40
2017-06-08T17:00:43.487Z,23.80
2017-06-08T17:03:11.010Z,23.70
2017-06-08T17:05:38.558Z,23.80
2017-06-08T17:08:06.848Z,25.10
2017-06-08T17:10:35.226Z,25.10
2017-06-08T17:13:03.538Z,24.60
2017-06-08T17:15:31.080Z,24.50
2017-06-08T17:17:58.593Z,23.50
2017-06-08T17:20:26.115Z,23.70
2017-06-08T17:22:53.650Z,23.10
2017-06-08T17:25:21.176Z,23.70
2017-06-08T17:27:48.719Z,22.20
2017-06-08T17:30:16.234Z,23.00
2017-06-08T17:32:43.921Z,22.80
2017-06-08T17:35:11.447Z,23.40
2017-06-08T17:37:39.803Z,24.20
2017-06-08T17:40:07.339Z,24.20
2017-06-08T17:42:34.862Z,25.70
2017-06-08T17:45:02.438Z,25.70
2017-06-08T17:47:30.008Z,26.10
2017-06-08T17:49:57.550Z,26.80
2017-06-08T17:52:25.127Z,26.90
2017-06-08T17:54:52.665Z,27.30
2017-06-08T17:57:20.186Z,27.40
2017-06-08T17:59:47.741Z,27.30
2017-06-08T18:02:15.275Z,28.60
2017-06-08T18:04:42.853Z,29.80
2017-06-08T18:07:10.404Z,30.60
2017-06-08T18:09:42.890Z,30.90
2017-06-08T18:12:10.430Z,31.80
2017-06-08T18:14:37.954Z,32.30
2017-06-08T18:17:06.256Z,33.50
2017-06-08T18:19:37.348Z,33.40
2017-06-08T18:22:04.897Z,34.20
2017-06-08T18:24:32.416Z,34.60
2017-06-08T18:26:59.966Z,35.00
2017-06-08T18:29:27.494Z,35.90
2017-06-08T18:31:55.029Z,36.00
2017-06-08T18:34:22.545Z,36.30
2017-06-08T18:36:50.094Z,37.40
2017-06-08T18:39:17.704Z,37.30
2017-06-08T18:41:45.255Z,37.50
2017-06-08T18:44:12.800Z,37.70
2017-06-08T18:46:40.326Z,38.40
2017-06-08T18:49:08.675Z,39.40
2017-06-08T18:51:36.223Z,39.60
2017-06-08T18:54:03.747Z,39.50
2017-06-08T18:56:31.285Z,40.10
2017-06-08T18:58:58.816Z,40.00
2017-06-08T19:01:26.355Z,41.20
2017-06-08T19:03:53.878Z,41.00
2017-06-08T19:06:22.187Z,41.70
2017-06-08T19:08:49.764Z,41.70
2017-06-08T19:11:17.329Z,42.40
2017-06-08T19:13:44.873Z,42.70
2017-06-08T19:16:12.406Z,44.00
2017-06-08T19:18:39.962Z,45.00
2017-06-08T19:21:08.252Z,46.00
2017-06-08T19:23:35.809Z,45.90
2017-06-08T19:26:03.333Z,46.80
2017-06-08T19:28:30.858Z,47.20
2017-06-08T19:30:58.402Z,47.70
2017-06-08T19:33:25.985Z,48.70
2017-06-08T19:35:58.174Z,49.00
2017-06-08T19:38:25.698Z,49.60
2017-06-08T19:40:53.255Z,50.50
2017-06-08T19:43:20.839Z,51.50
2017-06-08T19:45:48.369Z,51.80
2017-06-08T19:48:15.909Z,52.40
2017-06-08T19:50:44.194Z,52.90
2017-06-08T19:53:12.497Z,52.80
2017-06-08T19:55:40.019Z,52.80
2017-06-08T19:58:07.602Z,53.80
2017-06-08T20:00:35.950Z,54.70
2017-06-08T20:03:03.477Z,54.50
2017-06-08T20:05:31.022Z,54.70
2017-06-08T20:07:58.594Z,55.30
2017-06-08T20:10:26.134Z,55.50
2017-06-08T20:12:53.661Z,56.20
2017-06-08T20:15:21.206Z,55.70
2017-06-08T20:17:48.729Z,56.00
2017-06-08T20:20:16.250Z,56.30
2017-06-08T20:22:44.555Z,57.90
2017-06-08T20:25:12.073Z,57.80
2017-06-08T20:27:39.605Z,58.70
2017-06-08T20:30:07.127Z,58.60
2017-06-08T20:32:34.666Z,59.50
2017-06-08T20:35:02.182Z,60.20
2017-06-08T20:37:29.705Z,60.60
2017-06-08T20:39:58.004Z,60.80
2017-06-08T20:42:25.522Z,60.80
2017-06-08T20:44:53.140Z,60.70
2017-06-08T20:47:20.696Z,61.00
2017-06-08T20:49:48.234Z,61.40
2017-06-08T20:52:15.753Z,62.90
2017-06-08T20:54:43.270Z,63.00
2017-06-08T20:57:10.814Z,63.80
2017-06-08T20:59:38.330Z,64.80
2017-06-08T21:02:05.876Z,64.30
2017-06-08T21:04:33.409Z,64.30
2017-06-08T21:07:00.949Z,64.40
2017-06-08T21:09:29.234Z,65.60
2017-06-08T21:14:33.519Z,65.90
2017-06-08T21:17:01.066Z,67.10
2017-06-08T21:19:28.614Z,67.90
2017-06-08T21:21:56.193Z,68.60
2017-06-08T21:24:23.743Z,69.50
2017-06-08T21:26:51.281Z,70.10
2017-06-08T21:29:18.800Z,70.50
2017-06-08T21:31:46.337Z,71.90
2017-06-08T21:34:13.853Z,72.10
2017-06-08T21:36:41.438Z,71.90
2017-06-08T21:39:08.957Z,71.90
2017-06-08T21:41:37.266Z,70.90
2017-06-08T21:44:04.783Z,70.80
2017-06-08T21:46:32.297Z,70.60
2017-06-08T21:48:59.826Z,70.70
2017-06-08T21:51:28.114Z,71.60
2017-06-08T21:53:55.654Z,71.50
2017-06-08T21:56:23.983Z,73.60
2017-06-08T21:58:51.549Z,73.00
2017-06-08T22:01:19.085Z,73.90
2017-06-08T22:03:46.605Z,74.90
2017-06-08T22:06:14.134Z,75.50
2017-06-08T22:08:41.645Z,75.60
2017-06-08T22:11:09.941Z,75.90
2017-06-08T22:13:37.618Z,75.90
2017-06-08T22:16:05.183Z,75.80
2017-06-08T22:18:32.757Z,76.10
2017-06-08T22:21:00.270Z,75.90
2017-06-08T22:23:28.580Z,76.50
2017-06-08T22:25:56.095Z,76.50
2017-06-08T22:28:24.393Z,76.50
2017-06-08T22:30:51.949Z,76.60
2017-06-08T22:35:57.721Z,80.00
2017-06-08T22:38:26.038Z,80.90
2017-06-08T22:40:53.556Z,80.90
2017-06-08T22:43:21.841Z,81.10
2017-06-08T22:45:52.490Z,81.10
2017-06-08T22:48:20.013Z,82.10
2017-06-08T22:50:47.555Z,83.30
2017-06-08T22:53:15.073Z,84.10
2017-06-08T22:55:42.790Z,84.40
2017-06-08T22:58:10.408Z,84.50
2017-06-08T23:00:37.919Z,84.80
2017-06-08T23:03:05.466Z,85.80
2017-06-08T23:05:32.981Z,85.80
2017-06-08T23:08:00.513Z,86.30
2017-06-08T23:10:28.788Z,86.40
2017-06-08T23:12:57.096Z,87.10
2017-06-08T23:15:24.609Z,87.70
2017-06-08T23:17:52.122Z,86.90
2017-06-08T23:20:19.667Z,87.40
2017-06-08T23:22:47.195Z,88.20
2017-06-08T23:25:14.733Z,88.80
2017-06-08T23:27:42.257Z,89.00
2017-06-08T23:30:09.803Z,89.20
2017-06-08T23:32:37.329Z,89.00
2017-06-08T23:35:04.845Z,89.10
2017-06-08T23:37:32.382Z,89.50
2017-06-08T23:39:59.897Z,88.80
2017-06-08T23:42:27.430Z,88.70
2017-06-08T23:44:54.950Z,88.60
2017-06-08T23:47:23.262Z,88.50
2017-06-08T23:49:50.773Z,89.40
2017-06-08T23:52:18.289Z,89.70
2017-06-08T23:54:45.817Z,90.30
2017-06-08T23:57:14.099Z,90.60
2017-06-08T23:59:41.626Z,90.60
